Adams, North Dakota
Current Conditions -  °F | °C
As of 4:15 AM on Saturday 22 Nov 2014 (Local Time) from KD55 Reporting Station
Clear Clear  
Wind Chill: 23°   Ceiling: Unl
Heat Index: 23°   Visibility: 10mi
Dew Point: 23°   Wind: 3mph
Humidity: 100%   Direction: 200°SSW
Pressure: 29.57"   Gusts: NA
Location:  48.42°N, 98.08°W
Report Text: KD55 221015Z AUTO 20003KT 10SM CLR M05/M05 A2957 RMK AO2
Loading
Personal Weather Stations






























Interactive Weather Map New forecast layout! Learn more

10-Day Weather Forecast

Advertisements
Track Severe Weather on mobile